sensor_id;sensor_type;location;lat;lon;timestamp;pressure;altitude;pressure_sealevel;temperature;humidity
61478;BME280;47345;52.334;10.392;2023-06-10T00:02:14;100975.17;;;16.28;59.78
61478;BME280;47345;52.334;10.392;2023-06-10T00:04:46;100976.67;;;16.24;60.34
61478;BME280;47345;52.334;10.392;2023-06-10T00:07:17;100977.23;;;16.16;60.92
61478;BME280;47345;52.334;10.392;2023-06-10T00:09:47;100976.39;;;16.11;61.45
61478;BME280;47345;52.334;10.392;2023-06-10T00:12:18;100982.62;;;16.06;61.87
61478;BME280;47345;52.334;10.392;2023-06-10T00:14:49;100982.46;;;16.03;62.68
61478;BME280;47345;52.334;10.392;2023-06-10T00:17:22;100984.61;;;15.98;63.12
61478;BME280;47345;52.334;10.392;2023-06-10T00:19:54;100984.63;;;15.94;63.36
61478;BME280;47345;52.334;10.392;2023-06-10T00:22:25;100990.11;;;15.92;63.70
61478;BME280;47345;52.334;10.392;2023-06-10T00:24:58;100987.48;;;15.89;64.01
61478;BME280;47345;52.334;10.392;2023-06-10T00:27:30;100985.70;;;15.85;64.32
61478;BME280;47345;52.334;10.392;2023-06-10T00:30:07;100987.44;;;15.80;64.69
61478;BME280;47345;52.334;10.392;2023-06-10T00:32:38;100988.10;;;15.75;64.97
61478;BME280;47345;52.334;10.392;2023-06-10T00:35:09;100987.49;;;15.71;65.57
61478;BME280;47345;52.334;10.392;2023-06-10T00:37:41;100991.10;;;15.65;65.91
61478;BME280;47345;52.334;10.392;2023-06-10T00:40:13;100997.61;;;15.59;66.52
61478;BME280;47345;52.334;10.392;2023-06-10T00:42:45;100993.66;;;15.54;67.13
61478;BME280;47345;52.334;10.392;2023-06-10T00:45:16;100990.45;;;15.47;68.06
61478;BME280;47345;52.334;10.392;2023-06-10T00:47:47;100998.34;;;15.39;68.45
61478;BME280;47345;52.334;10.392;2023-06-10T00:50:18;100995.13;;;15.30;69.72
61478;BME280;47345;52.334;10.392;2023-06-10T00:52:49;100994.02;;;15.20;71.03
61478;BME280;47345;52.334;10.392;2023-06-10T00:55:24;100994.73;;;15.11;71.25
61478;BME280;47345;52.334;10.392;2023-06-10T00:57:57;100993.09;;;15.03;71.76
61478;BME280;47345;52.334;10.392;2023-06-10T01:00:27;100997.36;;;14.96;72.16
61478;BME280;47345;52.334;10.392;2023-06-10T01:02:58;100996.14;;;14.89;72.97
61478;BME280;47345;52.334;10.392;2023-06-10T01:05:30;100992.58;;;14.82;73.95
61478;BME280;47345;52.334;10.392;2023-06-10T01:08:03;100989.52;;;14.76;74.33
61478;BME280;47345;52.334;10.392;2023-06-10T01:10:38;100991.23;;;14.73;74.44
61478;BME280;47345;52.334;10.392;2023-06-10T01:13:11;100994.39;;;14.71;74.81
61478;BME280;47345;52.334;10.392;2023-06-10T01:15:45;100991.08;;;14.67;75.86
61478;BME280;47345;52.334;10.392;2023-06-10T01:18:16;100992.80;;;14.62;76.24
61478;BME280;47345;52.334;10.392;2023-06-10T01:20:47;100990.35;;;14.59;76.27
61478;BME280;47345;52.334;10.392;2023-06-10T01:23:20;100997.41;;;14.55;76.30
61478;BME280;47345;52.334;10.392;2023-06-10T01:25:54;100995.05;;;14.50;76.67
61478;BME280;47345;52.334;10.392;2023-06-10T01:28:29;100994.67;;;14.49;77.12
61478;BME280;47345;52.334;10.392;2023-06-10T01:31:06;100996.43;;;14.46;77.29
61478;BME280;47345;52.334;10.392;2023-06-10T01:33:43;100997.10;;;14.44;77.24
61478;BME280;47345;52.334;10.392;2023-06-10T01:36:17;101000.52;;;14.41;77.65
61478;BME280;47345;52.334;10.392;2023-06-10T01:38:48;101001.80;;;14.38;77.63
61478;BME280;47345;52.334;10.392;2023-06-10T01:41:21;101003.02;;;14.37;77.84
61478;BME280;47345;52.334;10.392;2023-06-10T01:43:53;101000.14;;;14.35;77.78
61478;BME280;47345;52.334;10.392;2023-06-10T01:46:24;101003.79;;;14.34;78.20
61478;BME280;47345;52.334;10.392;2023-06-10T01:48:55;101000.45;;;14.29;78.18
61478;BME280;47345;52.334;10.392;2023-06-10T01:51:26;100999.55;;;14.28;78.05
61478;BME280;47345;52.334;10.392;2023-06-10T01:53:57;101002.85;;;14.26;78.36
61478;BME280;47345;52.334;10.392;2023-06-10T01:56:28;101004.50;;;14.23;78.29
61478;BME280;47345;52.334;10.392;2023-06-10T01:58:59;101011.30;;;14.20;78.44
61478;BME280;47345;52.334;10.392;2023-06-10T02:01:30;101013.01;;;14.18;78.61
61478;BME280;47345;52.334;10.392;2023-06-10T02:04:01;101004.02;;;14.16;78.64
61478;BME280;47345;52.334;10.392;2023-06-10T02:06:32;101000.65;;;14.14;78.72
61478;BME280;47345;52.334;10.392;2023-06-10T02:09:04;100995.81;;;14.09;78.92
61478;BME280;47345;52.334;10.392;2023-06-10T02:11:35;101002.02;;;14.06;78.87
61478;BME280;47345;52.334;10.392;2023-06-10T02:14:06;101003.29;;;14.00;79.13
61478;BME280;47345;52.334;10.392;2023-06-10T02:16:37;101008.95;;;13.96;79.60
61478;BME280;47345;52.334;10.392;2023-06-10T02:19:09;101010.42;;;13.92;79.96
61478;BME280;47345;52.334;10.392;2023-06-10T02:21:41;101013.54;;;13.88;80.27
61478;BME280;47345;52.334;10.392;2023-06-10T02:24:12;101021.61;;;13.82;80.47
61478;BME280;47345;52.334;10.392;2023-06-10T02:26:43;101020.80;;;13.77;80.66
61478;BME280;47345;52.334;10.392;2023-06-10T02:29:14;101027.13;;;13.74;80.85
61478;BME280;47345;52.334;10.392;2023-06-10T02:31:45;101028.34;;;13.71;80.83
61478;BME280;47345;52.334;10.392;2023-06-10T02:34:16;101027.92;;;13.69;81.05
61478;BME280;47345;52.334;10.392;2023-06-10T02:36:47;101025.73;;;13.67;81.14
61478;BME280;47345;52.334;10.392;2023-06-10T02:39:21;101022.21;;;13.62;81.08
61478;BME280;47345;52.334;10.392;2023-06-10T02:41:52;101024.93;;;13.54;81.55
61478;BME280;47345;52.334;10.392;2023-06-10T02:44:23;101023.71;;;13.42;82.10
61478;BME280;47345;52.334;10.392;2023-06-10T02:46:53;101031.27;;;13.38;82.04
61478;BME280;47345;52.334;10.392;2023-06-10T02:49:24;101034.95;;;13.39;82.15
61478;BME280;47345;52.334;10.392;2023-06-10T02:51:57;101032.25;;;13.37;81.89
61478;BME280;47345;52.334;10.392;2023-06-10T02:54:28;101038.71;;;13.31;82.28
61478;BME280;47345;52.334;10.392;2023-06-10T02:56:59;101039.02;;;13.32;82.36
61478;BME280;47345;52.334;10.392;2023-06-10T02:59:30;101034.29;;;13.33;82.09
61478;BME280;47345;52.334;10.392;2023-06-10T03:02:01;101034.14;;;13.32;81.89
61478;BME280;47345;52.334;10.392;2023-06-10T03:04:32;101029.70;;;13.29;82.05
61478;BME280;47345;52.334;10.392;2023-06-10T03:07:04;101032.98;;;13.25;82.17
61478;BME280;47345;52.334;10.392;2023-06-10T03:09:36;101038.59;;;13.21;82.57
61478;BME280;47345;52.334;10.392;2023-06-10T03:12:09;101039.66;;;13.17;82.77
61478;BME280;47345;52.334;10.392;2023-06-10T03:14:40;101038.71;;;13.21;83.14
61478;BME280;47345;52.334;10.392;2023-06-10T03:17:11;101041.00;;;13.27;83.21
61478;BME280;47345;52.334;10.392;2023-06-10T03:19:43;101052.21;;;13.34;82.91
61478;BME280;47345;52.334;10.392;2023-06-10T03:22:15;101064.08;;;13.38;82.68
61478;BME280;47345;52.334;10.392;2023-06-10T03:24:46;101067.96;;;13.44;82.40
61478;BME280;47345;52.334;10.392;2023-06-10T03:27:19;101064.42;;;13.52;82.36
61478;BME280;47345;52.334;10.392;2023-06-10T03:29:50;101063.59;;;13.66;82.20
61478;BME280;47345;52.334;10.392;2023-06-10T03:32:22;101057.67;;;13.79;81.72
61478;BME280;47345;52.334;10.392;2023-06-10T03:34:53;101050.70;;;13.98;81.35
61478;BME280;47345;52.334;10.392;2023-06-10T03:37:26;101051.06;;;14.18;80.75
61478;BME280;47345;52.334;10.392;2023-06-10T03:39:57;101056.15;;;14.37;80.16
61478;BME280;47345;52.334;10.392;2023-06-10T03:42:27;101055.05;;;14.60;79.49
61478;BME280;47345;52.334;10.392;2023-06-10T03:44:58;101053.16;;;14.78;78.67
61478;BME280;47345;52.334;10.392;2023-06-10T03:47:35;101051.46;;;14.93;77.97
61478;BME280;47345;52.334;10.392;2023-06-10T03:50:08;101055.96;;;15.05;77.48
61478;BME280;47345;52.334;10.392;2023-06-10T03:52:39;101051.38;;;15.24;77.15
61478;BME280;47345;52.334;10.392;2023-06-10T03:55:10;101055.04;;;15.42;76.37
61478;BME280;47345;52.334;10.392;2023-06-10T03:57:43;101058.41;;;15.62;75.40
61478;BME280;47345;52.334;10.392;2023-06-10T04:00:17;101052.23;;;15.72;74.66
61478;BME280;47345;52.334;10.392;2023-06-10T04:02:50;101046.55;;;15.83;74.37
61478;BME280;47345;52.334;10.392;2023-06-10T04:05:22;101049.23;;;16.00;74.04
61478;BME280;47345;52.334;10.392;2023-06-10T04:07:53;101051.02;;;16.16;73.17
61478;BME280;47345;52.334;10.392;2023-06-10T04:10:24;101045.30;;;16.26;72.61
61478;BME280;47345;52.334;10.392;2023-06-10T04:12:56;101042.27;;;16.42;72.41
61478;BME280;47345;52.334;10.392;2023-06-10T04:15:26;101049.77;;;16.64;71.67
61478;BME280;47345;52.334;10.392;2023-06-10T04:17:57;101050.08;;;16.87;71.19
61478;BME280;47345;52.334;10.392;2023-06-10T04:20:28;101053.21;;;17.13;70.38
61478;BME280;47345;52.334;10.392;2023-06-10T04:22:59;101050.99;;;17.26;69.20
61478;BME280;47345;52.334;10.392;2023-06-10T04:25:30;101052.39;;;17.32;69.00
61478;BME280;47345;52.334;10.392;2023-06-10T04:28:01;101051.81;;;17.47;68.80
61478;BME280;47345;52.334;10.392;2023-06-10T04:30:32;101042.05;;;17.69;68.35
61478;BME280;47345;52.334;10.392;2023-06-10T04:33:04;101038.52;;;17.88;67.55
61478;BME280;47345;52.334;10.392;2023-06-10T04:35:36;101036.89;;;18.11;67.28
61478;BME280;47345;52.334;10.392;2023-06-10T04:38:07;101043.48;;;18.31;65.73
61478;BME280;47345;52.334;10.392;2023-06-10T04:40:38;101050.90;;;18.38;65.66
61478;BME280;47345;52.334;10.392;2023-06-10T04:43:10;101053.52;;;18.61;65.06
61478;BME280;47345;52.334;10.392;2023-06-10T04:45:40;101049.08;;;18.80;64.33
61478;BME280;47345;52.334;10.392;2023-06-10T04:48:14;101052.05;;;18.93;63.89
61478;BME280;47345;52.334;10.392;2023-06-10T04:50:45;101054.63;;;19.10;63.64
61478;BME280;47345;52.334;10.392;2023-06-10T04:53:16;101055.40;;;19.19;63.13
61478;BME280;47345;52.334;10.392;2023-06-10T04:55:47;101057.77;;;19.26;62.56
61478;BME280;47345;52.334;10.392;2023-06-10T04:58:18;101060.85;;;19.21;62.41
61478;BME280;47345;52.334;10.392;2023-06-10T05:00:49;101057.24;;;18.84;62.30
61478;BME280;47345;52.334;10.392;2023-06-10T05:03:20;101059.10;;;18.39;63.43
61478;BME280;47345;52.334;10.392;2023-06-10T05:05:51;101058.31;;;18.11;64.28
61478;BME280;47345;52.334;10.392;2023-06-10T05:08:22;101052.25;;;18.06;64.82
61478;BME280;47345;52.334;10.392;2023-06-10T05:10:53;101054.31;;;18.10;65.45
61478;BME280;47345;52.334;10.392;2023-06-10T05:13:23;101056.11;;;18.12;65.61
61478;BME280;47345;52.334;10.392;2023-06-10T05:15:54;101058.45;;;18.07;65.50
61478;BME280;47345;52.334;10.392;2023-06-10T05:18:25;101061.35;;;18.10;65.54
61478;BME280;47345;52.334;10.392;2023-06-10T05:20:56;101059.23;;;18.11;65.36
61478;BME280;47345;52.334;10.392;2023-06-10T05:23:27;101062.26;;;18.19;65.68
61478;BME280;47345;52.334;10.392;2023-06-10T05:25:58;101055.54;;;18.20;65.73
61478;BME280;47345;52.334;10.392;2023-06-10T05:28:29;101059.54;;;18.11;65.56
61478;BME280;47345;52.334;10.392;2023-06-10T05:30:59;101063.41;;;18.06;65.90
61478;BME280;47345;52.334;10.392;2023-06-10T05:33:30;101067.64;;;17.97;66.21
61478;BME280;47345;52.334;10.392;2023-06-10T05:36:00;101066.09;;;17.98;66.50
61478;BME280;47345;52.334;10.392;2023-06-10T05:38:32;101069.41;;;18.03;65.94
61478;BME280;47345;52.334;10.392;2023-06-10T05:41:03;101076.07;;;18.04;65.99
61478;BME280;47345;52.334;10.392;2023-06-10T05:43:33;101077.08;;;18.08;66.15
61478;BME280;47345;52.334;10.392;2023-06-10T05:46:04;101069.11;;;18.11;66.54
61478;BME280;47345;52.334;10.392;2023-06-10T05:48:35;101064.17;;;18.08;66.30
61478;BME280;47345;52.334;10.392;2023-06-10T05:51:06;101061.77;;;18.09;66.67
61478;BME280;47345;52.334;10.392;2023-06-10T05:53:38;101059.02;;;18.13;66.38
61478;BME280;47345;52.334;10.392;2023-06-10T05:56:10;101062.29;;;18.26;66.48
61478;BME280;47345;52.334;10.392;2023-06-10T05:58:42;101059.30;;;18.37;66.37
61478;BME280;47345;52.334;10.392;2023-06-10T06:01:13;101061.25;;;18.37;65.96
61478;BME280;47345;52.334;10.392;2023-06-10T06:03:45;101062.75;;;18.28;66.53
61478;BME280;47345;52.334;10.392;2023-06-10T06:06:16;101054.86;;;18.23;66.81
61478;BME280;47345;52.334;10.392;2023-06-10T06:08:49;101053.48;;;18.23;66.49
61478;BME280;47345;52.334;10.392;2023-06-10T06:11:20;101057.34;;;18.25;66.78
61478;BME280;47345;52.334;10.392;2023-06-10T06:13:51;101054.76;;;18.17;66.50
61478;BME280;47345;52.334;10.392;2023-06-10T06:16:22;101053.02;;;18.08;67.25
61478;BME280;47345;52.334;10.392;2023-06-10T06:18:54;101052.13;;;18.06;67.69
61478;BME280;47345;52.334;10.392;2023-06-10T06:21:24;101055.33;;;18.14;67.66
61478;BME280;47345;52.334;10.392;2023-06-10T06:23:55;101055.65;;;18.20;67.10
61478;BME280;47345;52.334;10.392;2023-06-10T06:26:27;101057.88;;;18.27;67.23
61478;BME280;47345;52.334;10.392;2023-06-10T06:28:58;101058.84;;;18.39;67.48
61478;BME280;47345;52.334;10.392;2023-06-10T06:31:30;101056.02;;;18.46;67.06
61478;BME280;47345;52.334;10.392;2023-06-10T06:34:01;101059.64;;;18.59;66.94
61478;BME280;47345;52.334;10.392;2023-06-10T06:36:32;101066.52;;;18.70;66.68
61478;BME280;47345;52.334;10.392;2023-06-10T06:39:02;101072.67;;;18.82;66.46
61478;BME280;47345;52.334;10.392;2023-06-10T06:41:33;101074.10;;;18.95;65.48
61478;BME280;47345;52.334;10.392;2023-06-10T06:44:04;101070.30;;;18.94;65.71
61478;BME280;47345;52.334;10.392;2023-06-10T06:46:34;101066.98;;;18.95;66.15
61478;BME280;47345;52.334;10.392;2023-06-10T06:49:05;101068.74;;;19.09;65.56
61478;BME280;47345;52.334;10.392;2023-06-10T06:51:36;101073.27;;;19.24;65.18
61478;BME280;47345;52.334;10.392;2023-06-10T06:54:06;101072.98;;;19.41;64.89
61478;BME280;47345;52.334;10.392;2023-06-10T06:56:37;101076.12;;;19.58;64.23
61478;BME280;47345;52.334;10.392;2023-06-10T06:59:08;101075.48;;;19.67;64.10
61478;BME280;47345;52.334;10.392;2023-06-10T07:01:39;101073.63;;;19.74;63.79
61478;BME280;47345;52.334;10.392;2023-06-10T07:04:10;101071.31;;;19.76;63.69
61478;BME280;47345;52.334;10.392;2023-06-10T07:06:40;101072.42;;;19.82;63.30
61478;BME280;47345;52.334;10.392;2023-06-10T07:09:11;101074.18;;;19.86;63.86
61478;BME280;47345;52.334;10.392;2023-06-10T07:11:42;101073.37;;;19.94;63.35
61478;BME280;47345;52.334;10.392;2023-06-10T07:14:13;101074.29;;;20.10;62.97
61478;BME280;47345;52.334;10.392;2023-06-10T07:16:44;101073.04;;;20.26;62.38
61478;BME280;47345;52.334;10.392;2023-06-10T07:19:15;101069.82;;;20.21;62.78
61478;BME280;47345;52.334;10.392;2023-06-10T07:21:46;101072.58;;;20.23;63.09
61478;BME280;47345;52.334;10.392;2023-06-10T07:24:17;101072.60;;;20.35;62.59
61478;BME280;47345;52.334;10.392;2023-06-10T07:26:49;101075.17;;;20.50;62.71
61478;BME280;47345;52.334;10.392;2023-06-10T07:29:20;101071.77;;;20.60;62.21
61478;BME280;47345;52.334;10.392;2023-06-10T07:31:51;101072.07;;;20.64;62.16
61478;BME280;47345;52.334;10.392;2023-06-10T07:34:22;101072.30;;;20.70;62.60
61478;BME280;47345;52.334;10.392;2023-06-10T07:36:53;101078.51;;;20.79;61.59
61478;BME280;47345;52.334;10.392;2023-06-10T07:39:23;101075.85;;;20.97;61.63
61478;BME280;47345;52.334;10.392;2023-06-10T07:41:54;101074.38;;;21.04;61.13
61478;BME280;47345;52.334;10.392;2023-06-10T07:44:26;101068.50;;;20.96;61.69
61478;BME280;47345;52.334;10.392;2023-06-10T07:46:57;101069.33;;;21.05;61.82
61478;BME280;47345;52.334;10.392;2023-06-10T07:49:28;101072.70;;;21.25;61.02
61478;BME280;47345;52.334;10.392;2023-06-10T07:51:59;101071.42;;;21.41;60.33
61478;BME280;47345;52.334;10.392;2023-06-10T07:54:30;101070.73;;;21.47;60.29
61478;BME280;47345;52.334;10.392;2023-06-10T07:57:01;101069.64;;;21.41;60.31
61478;BME280;47345;52.334;10.392;2023-06-10T07:59:32;101066.45;;;21.48;60.90
61478;BME280;47345;52.334;10.392;2023-06-10T08:02:03;101069.16;;;21.59;60.35
61478;BME280;47345;52.334;10.392;2023-06-10T08:04:34;101065.27;;;21.75;60.16
61478;BME280;47345;52.334;10.392;2023-06-10T08:07:06;101065.13;;;21.96;59.46
61478;BME280;47345;52.334;10.392;2023-06-10T08:09:37;101070.34;;;22.15;59.26
61478;BME280;47345;52.334;10.392;2023-06-10T08:12:09;101071.21;;;22.29;58.96
61478;BME280;47345;52.334;10.392;2023-06-10T08:14:39;101069.27;;;22.34;59.58
61478;BME280;47345;52.334;10.392;2023-06-10T08:17:10;101073.92;;;22.47;58.86
61478;BME280;47345;52.334;10.392;2023-06-10T08:19:42;101073.04;;;22.56;58.69
61478;BME280;47345;52.334;10.392;2023-06-10T08:22:13;101071.73;;;22.60;58.08
61478;BME280;47345;52.334;10.392;2023-06-10T08:24:44;101072.30;;;22.63;58.37
61478;BME280;47345;52.334;10.392;2023-06-10T08:27:17;101073.08;;;22.68;57.90
61478;BME280;47345;52.334;10.392;2023-06-10T08:29:48;101071.77;;;22.77;57.55
61478;BME280;47345;52.334;10.392;2023-06-10T08:32:19;101082.00;;;22.87;57.43
61478;BME280;47345;52.334;10.392;2023-06-10T08:34:50;101075.48;;;22.89;57.07
61478;BME280;47345;52.334;10.392;2023-06-10T08:37:22;101069.52;;;22.84;58.15
61478;BME280;47345;52.334;10.392;2023-06-10T08:39:52;101070.45;;;22.94;57.66
61478;BME280;47345;52.334;10.392;2023-06-10T08:42:25;101080.33;;;23.10;57.23
61478;BME280;47345;52.334;10.392;2023-06-10T08:44:59;101082.79;;;23.31;57.10
61478;BME280;47345;52.334;10.392;2023-06-10T08:47:34;101078.92;;;23.48;55.94
61478;BME280;47345;52.334;10.392;2023-06-10T08:50:07;101072.65;;;23.61;56.13
61478;BME280;47345;52.334;10.392;2023-06-10T08:52:44;101074.97;;;23.77;55.67
61478;BME280;47345;52.334;10.392;2023-06-10T08:55:18;101074.90;;;23.69;56.17
61478;BME280;47345;52.334;10.392;2023-06-10T08:57:49;101071.25;;;23.74;56.02
61478;BME280;47345;52.334;10.392;2023-06-10T09:00:20;101069.90;;;23.83;55.51
61478;BME280;47345;52.334;10.392;2023-06-10T09:02:51;101071.27;;;23.95;55.16
61478;BME280;47345;52.334;10.392;2023-06-10T12:34:09;100967.71;;;30.61;40.42
61478;BME280;47345;52.334;10.392;2023-06-10T12:36:39;100965.30;;;30.77;39.81
61478;BME280;47345;52.334;10.392;2023-06-10T12:39:10;100959.39;;;30.65;39.82
61478;BME280;47345;52.334;10.392;2023-06-10T12:41:41;100960.00;;;30.62;39.48
61478;BME280;47345;52.334;10.392;2023-06-10T12:44:16;100956.86;;;30.68;38.66
61478;BME280;47345;52.334;10.392;2023-06-10T12:46:46;100950.27;;;30.72;39.77
61478;BME280;47345;52.334;10.392;2023-06-10T12:49:24;100950.64;;;30.86;38.85
61478;BME280;47345;52.334;10.392;2023-06-10T12:51:56;100952.17;;;31.02;38.59
61478;BME280;47345;52.334;10.392;2023-06-10T12:54:26;100950.10;;;31.21;38.24
61478;BME280;47345;52.334;10.392;2023-06-10T12:56:57;100946.23;;;31.30;38.23
61478;BME280;47345;52.334;10.392;2023-06-10T12:59:28;100941.73;;;31.36;38.34
61478;BME280;47345;52.334;10.392;2023-06-10T13:02:01;100943.19;;;31.49;37.60
61478;BME280;47345;52.334;10.392;2023-06-10T13:04:31;100941.87;;;31.44;36.87
61478;BME280;47345;52.334;10.392;2023-06-10T13:07:02;100937.20;;;31.41;37.35
61478;BME280;47345;52.334;10.392;2023-06-10T13:09:33;100938.36;;;31.54;37.43
61478;BME280;47345;52.334;10.392;2023-06-10T13:12:05;100935.03;;;31.67;36.82
61478;BME280;47345;52.334;10.392;2023-06-10T13:14:44;100928.70;;;31.74;36.13
61478;BME280;47345;52.334;10.392;2023-06-10T13:17:16;100928.98;;;31.58;36.39
61478;BME280;47345;52.334;10.392;2023-06-10T13:19:47;100928.70;;;31.46;36.67
61478;BME280;47345;52.334;10.392;2023-06-10T13:22:18;100924.56;;;31.35;36.16
61478;BME280;47345;52.334;10.392;2023-06-10T13:24:49;100923.41;;;31.38;37.00
61478;BME280;47345;52.334;10.392;2023-06-10T13:27:20;100920.72;;;31.49;35.65
61478;BME280;47345;52.334;10.392;2023-06-10T13:29:55;100911.91;;;31.56;36.15
61478;BME280;47345;52.334;10.392;2023-06-10T13:32:31;100907.29;;;31.66;36.20
61478;BME280;47345;52.334;10.392;2023-06-10T13:35:02;100905.55;;;31.79;35.90
61478;BME280;47345;52.334;10.392;2023-06-10T13:37:34;100904.08;;;31.95;35.39
61478;BME280;47345;52.334;10.392;2023-06-10T13:40:07;100902.25;;;32.07;35.18
61478;BME280;47345;52.334;10.392;2023-06-10T13:42:39;100904.90;;;32.19;34.96
61478;BME280;47345;52.334;10.392;2023-06-10T13:45:10;100903.28;;;32.28;34.19
61478;BME280;47345;52.334;10.392;2023-06-10T13:47:42;100902.71;;;32.28;34.46
61478;BME280;47345;52.334;10.392;2023-06-10T13:50:13;100900.12;;;32.24;34.74
61478;BME280;47345;52.334;10.392;2023-06-10T13:52:43;100898.35;;;32.24;34.87
61478;BME280;47345;52.334;10.392;2023-06-10T13:55:14;100895.65;;;32.28;34.38
61478;BME280;47345;52.334;10.392;2023-06-10T13:57:45;100899.77;;;32.28;33.74
61478;BME280;47345;52.334;10.392;2023-06-10T14:00:18;100898.45;;;32.27;33.61
61478;BME280;47345;52.334;10.392;2023-06-10T14:02:49;100893.02;;;32.24;33.83
61478;BME280;47345;52.334;10.392;2023-06-10T14:05:20;100890.25;;;32.14;34.32
61478;BME280;47345;52.334;10.392;2023-06-10T14:07:51;100892.98;;;32.28;34.57
61478;BME280;47345;52.334;10.392;2023-06-10T14:10:22;100890.74;;;32.55;34.67
61478;BME280;47345;52.334;10.392;2023-06-10T14:12:54;100890.11;;;32.78;33.67
61478;BME280;47345;52.334;10.392;2023-06-10T14:15:24;100887.68;;;32.88;33.48
61478;BME280;47345;52.334;10.392;2023-06-10T14:17:55;100883.39;;;32.85;33.34
61478;BME280;47345;52.334;10.392;2023-06-10T14:20:26;100879.87;;;32.67;34.04
61478;BME280;47345;52.334;10.392;2023-06-10T14:23:00;100886.59;;;32.44;34.03
61478;BME280;47345;52.334;10.392;2023-06-10T14:25:31;100880.09;;;32.33;33.83
61478;BME280;47345;52.334;10.392;2023-06-10T14:28:02;100877.98;;;32.31;33.91
61478;BME280;47345;52.334;10.392;2023-06-10T14:30:33;100880.09;;;32.29;33.61
61478;BME280;47345;52.334;10.392;2023-06-10T14:33:04;100877.38;;;32.16;33.77
61478;BME280;47345;52.334;10.392;2023-06-10T14:35:35;100873.52;;;32.07;33.85
61478;BME280;47345;52.334;10.392;2023-06-10T14:38:06;100874.72;;;31.99;34.49
61478;BME280;47345;52.334;10.392;2023-06-10T14:40:37;100877.05;;;31.99;34.88
61478;BME280;47345;52.334;10.392;2023-06-10T14:43:08;100873.57;;;32.23;34.85
61478;BME280;47345;52.334;10.392;2023-06-10T14:45:39;100869.62;;;32.53;34.64
61478;BME280;47345;52.334;10.392;2023-06-10T14:48:10;100872.52;;;32.80;34.00
61478;BME280;47345;52.334;10.392;2023-06-10T14:50:42;100872.02;;;32.92;32.89
61478;BME280;47345;52.334;10.392;2023-06-10T14:53:15;100874.23;;;32.88;32.92
61478;BME280;47345;52.334;10.392;2023-06-10T14:55:46;100874.19;;;33.00;33.46
61478;BME280;47345;52.334;10.392;2023-06-10T14:58:17;100871.75;;;32.94;32.70
61478;BME280;47345;52.334;10.392;2023-06-10T15:00:51;100872.77;;;32.53;32.93
61478;BME280;47345;52.334;10.392;2023-06-10T15:03:21;100872.29;;;32.18;33.52
61478;BME280;47345;52.334;10.392;2023-06-10T15:05:52;100866.92;;;32.08;34.11
61478;BME280;47345;52.334;10.392;2023-06-10T15:08:23;100866.52;;;32.13;35.06
61478;BME280;47345;52.334;10.392;2023-06-10T15:10:54;100869.05;;;32.33;34.54
61478;BME280;47345;52.334;10.392;2023-06-10T15:13:27;100868.67;;;32.63;33.93
61478;BME280;47345;52.334;10.392;2023-06-10T15:15:58;100863.09;;;32.92;32.69
61478;BME280;47345;52.334;10.392;2023-06-10T15:18:32;100862.70;;;33.16;32.34
61478;BME280;47345;52.334;10.392;2023-06-10T15:21:03;100858.45;;;33.37;32.40
61478;BME280;47345;52.334;10.392;2023-06-10T15:23:34;100858.27;;;33.69;32.53
61478;BME280;47345;52.334;10.392;2023-06-10T15:26:05;100859.56;;;34.05;31.78
61478;BME280;47345;52.334;10.392;2023-06-10T15:28:35;100852.31;;;34.29;30.93
61478;BME280;47345;52.334;10.392;2023-06-10T15:31:06;100858.89;;;34.47;31.28
61478;BME280;47345;52.334;10.392;2023-06-10T15:33:38;100852.20;;;34.38;30.80
61478;BME280;47345;52.334;10.392;2023-06-10T15:36:09;100849.35;;;34.15;31.29
61478;BME280;47345;52.334;10.392;2023-06-10T15:38:40;100853.67;;;33.88;30.95
61478;BME280;47345;52.334;10.392;2023-06-10T15:41:10;100857.25;;;33.52;31.41
61478;BME280;47345;52.334;10.392;2023-06-10T15:43:41;100861.14;;;33.13;32.01
61478;BME280;47345;52.334;10.392;2023-06-10T15:46:12;100861.26;;;32.90;32.30
61478;BME280;47345;52.334;10.392;2023-06-10T15:48:43;100861.70;;;32.73;32.16
61478;BME280;47345;52.334;10.392;2023-06-10T15:51:14;100861.45;;;32.63;31.67
61478;BME280;47345;52.334;10.392;2023-06-10T15:53:45;100859.76;;;32.58;31.62
61478;BME280;47345;52.334;10.392;2023-06-10T15:56:17;100857.69;;;32.56;31.48
61478;BME280;47345;52.334;10.392;2023-06-10T15:58:47;100863.25;;;32.51;31.30
61478;BME280;47345;52.334;10.392;2023-06-10T16:01:19;100882.80;;;32.53;31.27
61478;BME280;47345;52.334;10.392;2023-06-10T16:03:50;100882.33;;;32.36;30.14
61478;BME280;47345;52.334;10.392;2023-06-10T16:06:21;100888.52;;;32.11;29.80
61478;BME280;47345;52.334;10.392;2023-06-10T16:08:51;100891.27;;;31.76;29.83
61478;BME280;47345;52.334;10.392;2023-06-10T16:11:22;100882.63;;;31.50;30.05
61478;BME280;47345;52.334;10.392;2023-06-10T16:13:55;100883.17;;;31.31;30.69
61478;BME280;47345;52.334;10.392;2023-06-10T16:16:26;100876.98;;;31.09;31.21
61478;BME280;47345;52.334;10.392;2023-06-10T16:18:57;100874.05;;;30.89;31.98
61478;BME280;47345;52.334;10.392;2023-06-10T16:21:28;100883.78;;;30.78;32.35
61478;BME280;47345;52.334;10.392;2023-06-10T16:23:59;100893.38;;;30.64;32.79
61478;BME280;47345;52.334;10.392;2023-06-10T16:26:30;100909.05;;;30.51;33.07
61478;BME280;47345;52.334;10.392;2023-06-10T16:29:01;100923.02;;;30.25;33.75
61478;BME280;47345;52.334;10.392;2023-06-10T16:31:32;100928.61;;;29.83;34.78